Time;durP1;ratioP1;P1;durP2;ratioP2;P2;SDS_P1;SDS_P2;PMS_P1;PMS_P2;Temp;Humidity;BMP_temperature;BMP_pressure;BME280_temperature;BME280_humidity;BME280_pressure;Samples;Min_cycle;Max_cycle;Signal;HPM_P1;HPM_P2
2021/10/21 00:01:23;;;;;;;;;;;14.00;99.90;;;;;;5048711;28;20372;-74
2021/10/21 00:03:48;;;;;;;;;;;14.00;99.90;;;;;;5046779;28;20015;-72
2021/10/21 00:06:14;;;;;;;;;;;14.00;99.90;;;;;;5049534;28;19915;-72
2021/10/21 00:08:39;;;;;;;;;;;14.00;99.90;;;;;;5075794;22;19932;-74
2021/10/21 00:11:05;;;;;;;;;;;14.00;99.90;;;;;;5062531;28;19917;-72
2021/10/21 00:13:30;;;;;;;;;;;13.90;99.90;;;;;;5067697;28;19913;-71
2021/10/21 00:15:56;;;;;;;;;;;13.90;1.00;;;;;;5068428;28;19962;-72
2021/10/21 00:18:21;;;;;;;;;;;13.90;1.00;;;;;;5068676;28;20323;-70
2021/10/21 00:20:47;;;;;;;;;;;13.90;1.00;;;;;;5068736;28;20421;-72
2021/10/21 00:23:13;;;;;;;;;;;13.80;1.00;;;;;;5067202;28;20357;-71
2021/10/21 00:25:38;;;;;;;;;;;13.80;1.00;;;;;;5049401;28;19920;-72
2021/10/21 00:28:04;;;;;;;;;;;13.80;1.00;;;;;;5067511;28;20198;-74
2021/10/21 00:30:29;;;;;;;;;;;13.80;1.00;;;;;;5067959;28;20340;-72
2021/10/21 00:32:55;;;;;;;;;;;13.80;1.00;;;;;;5067859;28;20352;-68
2021/10/21 00:35:20;;;;;;;;;;;13.70;1.00;;;;;;5069103;28;19935;-70
2021/10/21 00:37:46;;;;;;;;;;;13.70;1.00;;;;;;5069070;28;20357;-72
2021/10/21 00:40:11;;;;;;;;;;;13.70;1.00;;;;;;5068988;28;19920;-72
2021/10/21 00:42:37;;;;;;;;;;;13.60;1.00;;;;;;5067853;28;19935;-72
2021/10/21 00:45:03;;;;;;;;;;;13.60;1.00;;;;;;5068111;28;19915;-72
2021/10/21 00:47:29;;;;;;;;;;;13.60;1.00;;;;;;5068085;28;19918;-72
2021/10/21 00:49:55;;;;;;;;;;;13.60;1.00;;;;;;5068444;28;19909;-72
2021/10/21 00:52:20;;;;;;;;;;;13.60;1.00;;;;;;5068218;28;19912;-73
2021/10/21 00:54:46;;;;;;;;;;;13.60;1.00;;;;;;5068662;28;20013;-72
2021/10/21 00:57:12;;;;;;;;;;;13.60;1.00;;;;;;5068444;28;19995;-72
2021/10/21 00:59:38;;;;;;;;;;;13.60;1.00;;;;;;5067849;28;19922;-73
2021/10/21 01:02:04;;;;;;;;;;;13.60;1.00;;;;;;5067556;28;19928;-72
2021/10/21 01:04:29;;;;;;;;;;;13.60;1.00;;;;;;5068730;28;20026;-72
2021/10/21 01:06:55;;;;;;;;;;;13.60;1.00;;;;;;5068929;28;20324;-72
2021/10/21 01:09:22;;;;;;;;;;;13.70;1.00;;;;;;5069060;28;19920;-72
2021/10/21 01:11:47;;;;;;;;;;;13.70;1.00;;;;;;5071559;28;19917;-71
2021/10/21 01:14:13;;;;;;;;;;;13.70;1.00;;;;;;5071741;28;19908;-73
2021/10/21 01:16:40;;;;;;;;;;;13.80;1.00;;;;;;5071207;28;19991;-71
2021/10/21 01:19:15;;;;;;;;;;;13.80;1.00;;;;;;5071584;28;20011;-71
2021/10/21 01:21:42;;;;;;;;;;;13.80;1.00;;;;;;5071747;28;19916;-73
2021/10/21 01:24:07;;;;;;;;;;;13.80;1.00;;;;;;5071080;28;19913;-72
2021/10/21 01:26:33;;;;;;;;;;;13.80;1.00;;;;;;5071745;28;19924;-73
2021/10/21 01:28:58;;;;;;;;;;;13.90;1.00;;;;;;5066075;28;20309;-72
2021/10/21 01:31:24;;;;;;;;;;;13.90;1.00;;;;;;5070866;28;19912;-70
2021/10/21 01:33:49;;;;;;;;;;;13.90;1.00;;;;;;5070949;28;19931;-72
2021/10/21 01:36:15;;;;;;;;;;;13.90;1.00;;;;;;5072131;28;19908;-72
2021/10/21 01:38:41;;;;;;;;;;;13.90;1.00;;;;;;5071670;28;19919;-72
2021/10/21 01:41:06;;;;;;;;;;;13.90;1.00;;;;;;5071305;28;19916;-72
2021/10/21 01:43:32;;;;;;;;;;;13.90;1.00;;;;;;5070219;28;19909;-71
2021/10/21 01:45:57;;;;;;;;;;;14.00;1.00;;;;;;5070888;28;20336;-73
2021/10/21 01:48:23;;;;;;;;;;;14.00;1.00;;;;;;5070803;28;19959;-71
2021/10/21 01:50:48;;;;;;;;;;;14.00;1.00;;;;;;5071785;28;19930;-72
2021/10/21 01:53:14;;;;;;;;;;;14.00;1.00;;;;;;5070588;28;19912;-71
2021/10/21 01:55:40;;;;;;;;;;;14.10;1.00;;;;;;5071118;28;19912;-72
2021/10/21 01:58:06;;;;;;;;;;;14.10;1.00;;;;;;5070858;28;20350;-72
2021/10/21 02:00:31;;;;;;;;;;;14.20;1.00;;;;;;5070402;28;20035;-73
2021/10/21 02:02:57;;;;;;;;;;;14.10;1.00;;;;;;5070352;28;19921;-72
2021/10/21 02:05:23;;;;;;;;;;;14.10;1.00;;;;;;5071418;28;19924;-71
2021/10/21 02:07:48;;;;;;;;;;;14.10;1.00;;;;;;5071137;28;19908;-71
2021/10/21 02:10:15;;;;;;;;;;;14.10;1.00;;;;;;5071309;28;20015;-72
2021/10/21 02:12:41;;;;;;;;;;;14.20;1.00;;;;;;5070127;28;20003;-70
2021/10/21 02:15:07;;;;;;;;;;;14.10;1.00;;;;;;5070875;28;19908;-72
2021/10/21 02:17:32;;;;;;;;;;;14.10;1.00;;;;;;5070143;28;19908;-71
2021/10/21 02:19:58;;;;;;;;;;;14.10;1.00;;;;;;5070267;28;20551;-72
2021/10/21 02:22:23;;;;;;;;;;;14.10;1.00;;;;;;5070334;28;19959;-72
2021/10/21 02:24:49;;;;;;;;;;;14.00;1.00;;;;;;5070705;28;19912;-71
2021/10/21 02:27:15;;;;;;;;;;;14.00;1.00;;;;;;5070904;28;19970;-73
2021/10/21 02:29:40;;;;;;;;;;;13.90;1.00;;;;;;5069109;28;20425;-73
2021/10/21 02:32:08;;;;;;;;;;;13.90;1.00;;;;;;5068924;28;19913;-72
2021/10/21 02:34:34;;;;;;;;;;;13.80;1.00;;;;;;5070637;28;19909;-72
2021/10/21 02:36:59;;;;;;;;;;;13.80;1.00;;;;;;5070355;28;20360;-71
2021/10/21 02:39:25;;;;;;;;;;;13.70;1.00;;;;;;5070500;28;19960;-73
2021/10/21 02:41:50;;;;;;;;;;;13.70;1.00;;;;;;5069620;28;19919;-70
2021/10/21 02:44:16;;;;;;;;;;;13.60;1.00;;;;;;5069739;28;19916;-71
2021/10/21 02:46:42;;;;;;;;;;;13.60;1.00;;;;;;5069331;28;19916;-71
2021/10/21 02:49:07;;;;;;;;;;;13.60;1.00;;;;;;5067851;28;20381;-72
2021/10/21 02:51:33;;;;;;;;;;;13.60;1.00;;;;;;5069867;28;19914;-72
2021/10/21 02:53:58;;;;;;;;;;;13.60;1.00;;;;;;5069267;28;20031;-72
2021/10/21 02:56:24;;;;;;;;;;;13.60;1.00;;;;;;5070127;28;19966;-72
2021/10/21 02:58:49;;;;;;;;;;;13.60;1.00;;;;;;5069606;28;20531;-73
2021/10/21 03:01:14;;;;;;;;;;;13.60;1.00;;;;;;5069587;28;19912;-72
2021/10/21 03:03:40;;;;;;;;;;;13.60;1.00;;;;;;5069127;28;19912;-72
2021/10/21 03:06:05;;;;;;;;;;;13.50;1.00;;;;;;5070281;28;19954;-71
2021/10/21 03:08:31;;;;;;;;;;;13.40;1.00;;;;;;5069730;28;19920;-72
2021/10/21 03:10:56;;;;;;;;;;;13.40;1.00;;;;;;5070512;28;19915;-72
2021/10/21 03:13:22;;;;;;;;;;;13.30;1.00;;;;;;5068862;28;19913;-71
2021/10/21 03:15:48;;;;;;;;;;;13.30;1.00;;;;;;5068972;28;19916;-72
2021/10/21 03:18:13;;;;;;;;;;;13.20;1.00;;;;;;5069055;28;19936;-72
2021/10/21 03:20:39;;;;;;;;;;;13.20;1.00;;;;;;5069790;28;19936;-70
2021/10/21 03:23:04;;;;;;;;;;;13.20;1.00;;;;;;5069175;28;20015;-72
2021/10/21 03:25:30;;;;;;;;;;;13.20;1.00;;;;;;5069966;28;19953;-72
2021/10/21 03:27:57;;;;;;;;;;;13.20;1.00;;;;;;5069212;28;19908;-71
2021/10/21 03:30:23;;;;;;;;;;;13.20;1.00;;;;;;5067874;28;19912;-71
2021/10/21 03:32:48;;;;;;;;;;;13.20;1.00;;;;;;5068354;28;20502;-71
2021/10/21 03:35:14;;;;;;;;;;;13.20;1.00;;;;;;5069723;28;19912;-72
2021/10/21 03:37:39;;;;;;;;;;;13.30;1.00;;;;;;5069351;28;20357;-71
2021/10/21 03:40:05;;;;;;;;;;;13.30;1.00;;;;;;5066419;28;19998;-68
2021/10/21 03:42:31;;;;;;;;;;;13.30;1.00;;;;;;5068327;28;20037;-72
2021/10/21 03:44:57;;;;;;;;;;;13.30;1.00;;;;;;5068641;28;19962;-71
2021/10/21 03:47:23;;;;;;;;;;;13.40;1.00;;;;;;5068623;28;19915;-72
2021/10/21 03:49:51;;;;;;;;;;;13.40;1.00;;;;;;5069604;28;19944;-72
2021/10/21 03:52:19;;;;;;;;;;;13.50;1.00;;;;;;5068524;28;19917;-72
2021/10/21 03:54:45;;;;;;;;;;;13.50;1.00;;;;;;5069097;28;20003;-72
2021/10/21 03:57:11;;;;;;;;;;;13.50;1.00;;;;;;5069586;28;19959;-72
2021/10/21 03:59:37;;;;;;;;;;;13.50;1.00;;;;;;5068329;28;19912;-72
2021/10/21 04:02:02;;;;;;;;;;;13.60;1.00;;;;;;5067984;28;19921;-72
2021/10/21 04:04:28;;;;;;;;;;;13.70;1.00;;;;;;5068796;28;19994;-70
2021/10/21 04:06:53;;;;;;;;;;;13.70;1.00;;;;;;5069466;28;19920;-72
2021/10/21 04:09:19;;;;;;;;;;;13.80;1.00;;;;;;5069105;28;19916;-72
2021/10/21 04:11:44;;;;;;;;;;;13.80;1.00;;;;;;5068834;28;19950;-72
2021/10/21 04:14:10;;;;;;;;;;;13.90;1.00;;;;;;5068522;28;20223;-72
2021/10/21 04:16:35;;;;;;;;;;;13.90;1.00;;;;;;5067597;28;19915;-72
2021/10/21 04:19:01;;;;;;;;;;;13.90;1.00;;;;;;5069264;28;19935;-71
2021/10/21 04:21:29;;;;;;;;;;;13.90;1.00;;;;;;5068826;28;19913;-71
2021/10/21 04:23:55;;;;;;;;;;;14.00;1.00;;;;;;5068612;28;19991;-72
2021/10/21 04:26:21;;;;;;;;;;;14.00;1.00;;;;;;5069316;28;19951;-68
2021/10/21 04:28:46;;;;;;;;;;;14.00;1.00;;;;;;5049929;28;19916;-71
2021/10/21 04:31:12;;;;;;;;;;;14.00;1.00;;;;;;5067598;28;20489;-71
2021/10/21 04:33:37;;;;;;;;;;;14.00;1.00;;;;;;5067889;28;19924;-72
2021/10/21 04:36:03;;;;;;;;;;;14.00;1.00;;;;;;5065887;28;20085;-71
2021/10/21 04:38:28;;;;;;;;;;;14.00;1.00;;;;;;5055376;28;20430;-73
2021/10/21 04:40:54;;;;;;;;;;;14.00;1.00;;;;;;5048292;28;19923;-74
2021/10/21 04:43:20;;;;;;;;;;;14.00;1.00;;;;;;5051289;28;19920;-72
2021/10/21 04:45:45;;;;;;;;;;;14.00;1.00;;;;;;5051797;28;19913;-72
2021/10/21 04:48:11;;;;;;;;;;;14.00;1.00;;;;;;5051939;28;19909;-72
2021/10/21 04:50:36;;;;;;;;;;;13.90;99.90;;;;;;5064878;28;20119;-72
2021/10/21 04:53:02;;;;;;;;;;;13.80;99.90;;;;;;5071664;28;19909;-73
2021/10/21 04:55:28;;;;;;;;;;;13.80;1.00;;;;;;5072522;28;19939;-72
2021/10/21 04:57:54;;;;;;;;;;;13.80;99.90;;;;;;5071758;28;19973;-72
2021/10/21 05:00:20;;;;;;;;;;;13.80;1.00;;;;;;5072021;28;19916;-71
2021/10/21 05:02:45;;;;;;;;;;;13.80;1.00;;;;;;5070461;28;19912;-72
2021/10/21 05:05:11;;;;;;;;;;;13.80;99.90;;;;;;5059037;28;19917;-72
2021/10/21 05:07:37;;;;;;;;;;;13.80;99.90;;;;;;5050814;28;19959;-72
2021/10/21 05:10:03;;;;;;;;;;;13.70;99.90;;;;;;5050718;28;19917;-69
2021/10/21 05:12:29;;;;;;;;;;;13.70;99.90;;;;;;5068261;28;20019;-72
2021/10/21 05:14:56;;;;;;;;;;;13.80;1.00;;;;;;5059185;28;19966;-71
2021/10/21 05:17:22;;;;;;;;;;;13.70;1.00;;;;;;5061744;28;19913;-71
2021/10/21 05:19:47;;;;;;;;;;;13.70;1.00;;;;;;5054345;28;19921;-72
2021/10/21 05:22:13;;;;;;;;;;;13.70;1.00;;;;;;5061538;28;21028;-72
2021/10/21 05:24:38;;;;;;;;;;;13.70;1.00;;;;;;5063087;28;19912;-71
2021/10/21 05:27:04;;;;;;;;;;;13.70;1.00;;;;;;5052113;28;19919;-72
2021/10/21 05:29:29;;;;;;;;;;;13.60;99.90;;;;;;5061541;28;19924;-73
2021/10/21 05:31:55;;;;;;;;;;;13.60;99.90;;;;;;5055724;28;19916;-72
2021/10/21 05:34:21;;;;;;;;;;;13.50;99.90;;;;;;5052678;28;20400;-70
2021/10/21 05:36:46;;;;;;;;;;;13.50;99.90;;;;;;5054393;28;20345;-69
2021/10/21 05:39:12;;;;;;;;;;;13.40;99.90;;;;;;5057569;28;19917;-69
2021/10/21 05:41:37;;;;;;;;;;;13.50;94.30;;;;;;5067977;28;19928;-70
2021/10/21 05:44:03;;;;;;;;;;;13.40;24.70;;;;;;5061966;28;19913;-72
2021/10/21 05:46:29;;;;;;;;;;;13.30;1.00;;;;;;5049086;28;19920;-71
2021/10/21 05:48:54;;;;;;;;;;;13.30;1.00;;;;;;5056865;28;19965;-73
2021/10/21 05:51:20;;;;;;;;;;;13.30;1.00;;;;;;5068453;28;19917;-73
2021/10/21 05:53:45;;;;;;;;;;;13.20;1.00;;;;;;5063330;28;19913;-72
2021/10/21 05:56:11;;;;;;;;;;;13.10;1.00;;;;;;5062583;28;19923;-69
2021/10/21 05:58:38;;;;;;;;;;;13.10;1.00;;;;;;5067158;28;19913;-72
2021/10/21 06:01:04;;;;;;;;;;;13.00;1.00;;;;;;5061261;28;19955;-72
2021/10/21 06:03:32;;;;;;;;;;;13.00;1.00;;;;;;5058045;28;20446;-72
2021/10/21 06:05:58;;;;;;;;;;;13.00;1.00;;;;;;5064965;28;19970;-72
2021/10/21 06:08:23;;;;;;;;;;;12.90;1.00;;;;;;5085794;22;19922;-73
2021/10/21 06:10:49;;;;;;;;;;;12.90;1.00;;;;;;5068351;28;19959;-74
2021/10/21 06:13:14;;;;;;;;;;;12.90;1.00;;;;;;5067408;28;19920;-75
2021/10/21 06:15:40;;;;;;;;;;;13.00;1.00;;;;;;5067534;28;19919;-74
2021/10/21 06:18:05;;;;;;;;;;;13.00;1.00;;;;;;5073420;28;19977;-76
2021/10/21 06:20:31;;;;;;;;;;;12.90;1.00;;;;;;5064876;28;19916;-75
2021/10/21 06:22:56;;;;;;;;;;;13.00;1.00;;;;;;5061470;28;20421;-74
2021/10/21 06:25:22;;;;;;;;;;;13.00;1.00;;;;;;5063802;28;19917;-73
2021/10/21 06:27:48;;;;;;;;;;;13.10;1.00;;;;;;5069088;28;20048;-71
2021/10/21 06:30:13;;;;;;;;;;;13.30;1.00;;;;;;5066758;28;20425;-74
2021/10/21 06:32:39;;;;;;;;;;;13.50;1.00;;;;;;5048685;28;19987;-74
2021/10/21 06:35:06;;;;;;;;;;;14.30;1.00;;;;;;5063307;28;19999;-73
2021/10/21 06:37:31;;;;;;;;;;;14.80;1.00;;;;;;5053472;28;19919;-72
2021/10/21 06:39:57;;;;;;;;;;;14.80;1.00;;;;;;5059588;28;19912;-72
2021/10/21 06:42:23;;;;;;;;;;;14.70;1.00;;;;;;5061713;28;20281;-72
2021/10/21 06:44:49;;;;;;;;;;;15.10;1.00;;;;;;5051284;28;20373;-72
2021/10/21 06:47:15;;;;;;;;;;;16.50;1.00;;;;;;5065287;28;19919;-73
2021/10/21 06:49:41;;;;;;;;;;;18.10;99.90;;;;;;5063414;28;19920;-72
2021/10/21 06:52:06;;;;;;;;;;;18.60;99.90;;;;;;5060381;28;19959;-72
2021/10/21 06:54:32;;;;;;;;;;;18.10;99.90;;;;;;5068517;28;19944;-73
2021/10/21 06:56:58;;;;;;;;;;;18.30;99.90;;;;;;5070374;28;19913;-73
2021/10/21 06:59:23;;;;;;;;;;;18.80;99.90;;;;;;5068943;28;20372;-72
2021/10/21 07:01:49;;;;;;;;;;;18.60;99.90;;;;;;5048643;28;20708;-71
2021/10/21 07:04:14;;;;;;;;;;;17.70;99.90;;;;;;5058019;28;19913;-73
2021/10/21 07:06:40;;;;;;;;;;;16.60;99.90;;;;;;5057398;28;19966;-74
2021/10/21 07:09:06;;;;;;;;;;;15.90;99.90;;;;;;5058995;28;20090;-74
2021/10/21 07:11:31;;;;;;;;;;;15.50;99.90;;;;;;5060820;28;19948;-73
2021/10/21 07:13:57;;;;;;;;;;;15.10;99.90;;;;;;5057427;28;19960;-74
2021/10/21 07:16:23;;;;;;;;;;;15.40;99.90;;;;;;5061845;28;19939;-73
2021/10/21 07:18:48;;;;;;;;;;;14.90;99.90;;;;;;5065898;28;19913;-74
2021/10/21 07:21:17;;;;;;;;;;;14.70;99.90;;;;;;5054553;28;19942;-73
2021/10/21 07:23:43;;;;;;;;;;;15.40;99.90;;;;;;5066330;28;19912;-72
2021/10/21 07:26:09;;;;;;;;;;;15.00;99.90;;;;;;5051137;28;19956;-74
2021/10/21 07:28:34;;;;;;;;;;;15.80;99.90;;;;;;5065188;28;19954;-71
2021/10/21 07:31:00;;;;;;;;;;;15.80;99.90;;;;;;5065700;28;19960;-73
2021/10/21 07:33:26;;;;;;;;;;;16.70;99.90;;;;;;5065342;28;20328;-72
2021/10/21 07:35:52;;;;;;;;;;;18.00;99.90;;;;;;5060142;28;19972;-71
2021/10/21 07:38:18;;;;;;;;;;;20.40;99.90;;;;;;5042969;28;19947;-72
2021/10/21 07:40:43;;;;;;;;;;;21.10;99.90;;;;;;5043258;28;20528;-73
2021/10/21 07:43:12;;;;;;;;;;;22.60;99.90;;;;;;5054965;28;20448;-74
2021/10/21 07:45:38;;;;;;;;;;;22.90;99.90;;;;;;5063290;28;19927;-73
2021/10/21 07:48:04;;;;;;;;;;;25.70;99.90;;;;;;5059776;28;19912;-73
2021/10/21 07:50:30;;;;;;;;;;;26.30;99.90;;;;;;5063746;28;19924;-72
2021/10/21 07:52:55;;;;;;;;;;;26.50;99.90;;;;;;5066620;28;19912;-72
2021/10/21 07:55:21;;;;;;;;;;;28.70;99.90;;;;;;5064357;28;19966;-72
2021/10/21 07:57:47;;;;;;;;;;;30.30;99.90;;;;;;5064298;28;19940;-72
2021/10/21 08:00:13;;;;;;;;;;;30.30;99.90;;;;;;5057615;28;19979;-72
2021/10/21 08:02:39;;;;;;;;;;;29.70;99.90;;;;;;5049883;28;20353;-72
2021/10/21 08:05:05;;;;;;;;;;;27.20;99.90;;;;;;5059200;28;19920;-73
2021/10/21 08:07:36;;;;;;;;;;;27.40;99.90;;;;;;5060836;28;19983;-72
2021/10/21 08:10:02;;;;;;;;;;;29.70;99.90;;;;;;5048594;28;20399;-72
2021/10/21 08:12:27;;;;;;;;;;;27.40;99.90;;;;;;5047947;28;19913;-72
2021/10/21 08:14:53;;;;;;;;;;;26.10;99.90;;;;;;5050902;28;20631;-71
2021/10/21 08:17:18;;;;;;;;;;;24.60;99.90;;;;;;5058837;28;19921;-73
2021/10/21 08:19:44;;;;;;;;;;;25.30;99.90;;;;;;5058982;28;19920;-72
2021/10/21 08:22:09;;;;;;;;;;;27.70;99.90;;;;;;5052758;28;20136;-73
2021/10/21 08:24:35;;;;;;;;;;;28.70;99.90;;;;;;5067668;28;19912;-72
2021/10/21 08:27:00;;;;;;;;;;;31.50;99.90;;;;;;5068756;28;20046;-73
2021/10/21 08:29:26;;;;;;;;;;;32.80;99.90;;;;;;5063001;28;19917;-73
2021/10/21 08:31:52;;;;;;;;;;;31.60;99.90;;;;;;5067663;28;20688;-71
2021/10/21 08:34:18;;;;;;;;;;;30.40;99.90;;;;;;5063385;28;20439;-71
2021/10/21 08:36:43;;;;;;;;;;;32.90;99.90;;;;;;5066393;28;19913;-72
2021/10/21 08:39:09;;;;;;;;;;;33.90;96.80;;;;;;5071907;28;19917;-72
2021/10/21 08:41:35;;;;;;;;;;;33.70;92.10;;;;;;5064320;28;19917;-72
2021/10/21 08:44:01;;;;;;;;;;;33.20;86.30;;;;;;5067927;28;19916;-71
2021/10/21 08:46:27;;;;;;;;;;;32.50;75.30;;;;;;5063733;28;19912;-74
2021/10/21 08:48:56;;;;;;;;;;;31.60;65.70;;;;;;5059730;28;20019;-73
2021/10/21 08:51:21;;;;;;;;;;;28.90;61.70;;;;;;5057159;28;19955;-72
2021/10/21 08:53:47;;;;;;;;;;;27.60;59.60;;;;;;5070406;28;19958;-72
2021/10/21 08:56:12;;;;;;;;;;;25.50;55.80;;;;;;5071606;28;19959;-71
2021/10/21 08:58:38;;;;;;;;;;;23.40;54.60;;;;;;5061784;28;19916;-71
2021/10/21 09:01:09;;;;;;;;;;;21.90;52.90;;;;;;5056440;28;19971;-72
2021/10/21 09:03:46;;;;;;;;;;;20.70;52.10;;;;;;5051693;28;20011;-73
2021/10/21 09:06:26;;;;;;;;;;;21.50;58.20;;;;;;5066051;28;20586;-73
2021/10/21 09:08:52;;;;;;;;;;;22.50;59.60;;;;;;5059097;28;19921;-74
2021/10/21 09:11:21;;;;;;;;;;;21.80;57.20;;;;;;5053120;28;20365;-73
2021/10/21 09:13:47;;;;;;;;;;;21.70;56.50;;;;;;5065407;28;19916;-72
2021/10/21 09:16:17;;;;;;;;;;;24.00;63.80;;;;;;5054193;28;19912;-70
2021/10/21 09:18:44;;;;;;;;;;;22.80;57.00;;;;;;5058613;28;20288;-72
2021/10/21 09:21:26;;;;;;;;;;;24.40;64.00;;;;;;5063088;28;20019;-71
2021/10/21 09:23:52;;;;;;;;;;;24.40;59.70;;;;;;5061987;28;19913;-73
2021/10/21 09:26:17;;;;;;;;;;;26.20;56.30;;;;;;5069153;28;19958;-72
2021/10/21 09:28:43;;;;;;;;;;;25.60;53.50;;;;;;5065844;28;19913;-71
2021/10/21 09:31:09;;;;;;;;;;;24.30;53.70;;;;;;5051951;28;19920;-73
2021/10/21 09:33:49;;;;;;;;;;;24.30;51.50;;;;;;5059433;28;19939;-72
2021/10/21 09:36:37;;;;;;;;;;;24.00;49.50;;;;;;5062418;28;19913;-72
2021/10/21 09:39:03;;;;;;;;;;;23.30;48.60;;;;;;5041098;28;19912;-70
2021/10/21 09:41:30;;;;;;;;;;;21.60;44.90;;;;;;5071005;28;20058;-71
2021/10/21 09:43:56;;;;;;;;;;;21.10;46.60;;;;;;5038258;28;19932;-70
2021/10/21 09:46:28;;;;;;;;;;;21.30;50.70;;;;;;5052106;28;19920;-73
2021/10/21 09:49:12;;;;;;;;;;;21.70;48.30;;;;;;5061626;28;19927;-72
2021/10/21 09:51:38;;;;;;;;;;;22.50;54.00;;;;;;5057552;28;20008;-71
2021/10/21 09:54:04;;;;;;;;;;;23.90;51.20;;;;;;5054639;28;20003;-72
2021/10/21 09:56:29;;;;;;;;;;;23.30;49.40;;;;;;5052623;28;20466;-72
2021/10/21 09:59:04;;;;;;;;;;;22.70;48.60;;;;;;5054750;28;20332;-72
2021/10/21 10:01:34;;;;;;;;;;;22.20;62.40;;;;;;5050418;28;19916;-71
2021/10/21 10:04:00;;;;;;;;;;;21.50;47.80;;;;;;5065053;28;19912;-74
2021/10/21 10:06:25;;;;;;;;;;;21.30;46.30;;;;;;5067939;28;19909;-73
2021/10/21 10:08:51;;;;;;;;;;;20.70;46.50;;;;;;5059273;28;19931;-71
2021/10/21 10:11:19;;;;;;;;;;;22.00;50.00;;;;;;5070447;28;19941;-72
2021/10/21 10:13:46;;;;;;;;;;;22.10;48.20;;;;;;5070088;28;19909;-71
2021/10/21 10:16:12;;;;;;;;;;;21.30;47.20;;;;;;5070734;28;19912;-72
2021/10/21 10:18:41;;;;;;;;;;;21.10;46.50;;;;;;5070534;28;19909;-73
2021/10/21 10:21:09;;;;;;;;;;;20.90;47.80;;;;;;5072210;28;19919;-72
2021/10/21 10:23:38;;;;;;;;;;;20.60;46.30;;;;;;5070086;28;20394;-72
2021/10/21 10:26:03;;;;;;;;;;;19.80;44.70;;;;;;5070669;28;19912;-73
2021/10/21 10:28:47;;;;;;;;;;;19.30;45.40;;;;;;5069988;28;20215;-72
2021/10/21 10:31:33;;;;;;;;;;;19.00;46.60;;;;;;5069838;28;19912;-73
2021/10/21 10:33:58;;;;;;;;;;;18.80;47.20;;;;;;5070166;28;20011;-73
2021/10/21 10:36:26;;;;;;;;;;;18.30;46.00;;;;;;5070641;28;19995;-72
2021/10/21 10:38:52;;;;;;;;;;;18.00;46.60;;;;;;5069709;28;19915;-72
2021/10/21 10:41:37;;;;;;;;;;;18.10;48.90;;;;;;5061470;28;19929;-74
2021/10/21 10:44:02;;;;;;;;;;;18.10;50.20;;;;;;5060428;28;20367;-73
2021/10/21 10:46:46;;;;;;;;;;;17.90;50.60;;;;;;5050155;28;19971;-74
2021/10/21 10:49:31;;;;;;;;;;;17.70;51.00;;;;;;5064019;28;19956;-74
2021/10/21 10:51:58;;;;;;;;;;;17.50;52.10;;;;;;5055919;28;20457;-75
2021/10/21 10:54:39;;;;;;;;;;;17.30;52.60;;;;;;5059903;28;19985;-74
2021/10/21 10:57:04;;;;;;;;;;;17.10;53.10;;;;;;5054501;28;19959;-74
2021/10/21 10:59:31;;;;;;;;;;;16.90;53.60;;;;;;5050370;28;19971;-75
2021/10/21 11:01:58;;;;;;;;;;;16.70;54.90;;;;;;5065837;28;19916;-74
2021/10/21 11:04:42;;;;;;;;;;;16.60;56.10;;;;;;5052323;28;20646;-73
2021/10/21 11:07:07;;;;;;;;;;;16.60;58.00;;;;;;5056006;28;19912;-73
2021/10/21 11:09:33;;;;;;;;;;;16.60;59.40;;;;;;5070635;28;19922;-74
2021/10/21 11:11:58;;;;;;;;;;;16.50;64.70;;;;;;5059166;28;19916;-73
2021/10/21 11:14:47;;;;;;;;;;;16.20;74.90;;;;;;5056814;28;20055;-72
2021/10/21 11:17:14;;;;;;;;;;;15.90;87.30;;;;;;5071030;28;20274;-74
2021/10/21 11:19:43;;;;;;;;;;;15.70;94.20;;;;;;5061574;28;19992;-75
2021/10/21 11:22:29;;;;;;;;;;;15.40;99.20;;;;;;5064739;28;19924;-75
2021/10/21 11:25:00;;;;;;;;;;;15.40;99.90;;;;;;5054230;28;19912;-75
2021/10/21 11:27:30;;;;;;;;;;;15.60;99.90;;;;;;5069012;28;19922;-73
2021/10/21 11:29:59;;;;;;;;;;;16.40;99.90;;;;;;5059595;28;20046;-72
2021/10/21 11:32:29;;;;;;;;;;;17.20;99.90;;;;;;5061156;28;19966;-73
2021/10/21 11:34:55;;;;;;;;;;;17.60;99.90;;;;;;5067987;28;19916;-72
2021/10/21 11:37:32;;;;;;;;;;;18.30;99.90;;;;;;5064184;28;19997;-72
2021/10/21 11:39:58;;;;;;;;;;;19.10;99.90;;;;;;5064753;28;19916;-73
2021/10/21 11:42:27;;;;;;;;;;;19.90;99.90;;;;;;5065921;28;19923;-72
2021/10/21 11:45:00;;;;;;;;;;;20.60;99.90;;;;;;5057915;28;20374;-74
2021/10/21 11:47:27;;;;;;;;;;;21.10;99.90;;;;;;5063257;28;19916;-72
2021/10/21 11:49:55;;;;;;;;;;;21.60;99.90;;;;;;5065842;28;19939;-72
2021/10/21 11:52:21;;;;;;;;;;;21.80;99.90;;;;;;5063105;28;19912;-71
2021/10/21 11:54:46;;;;;;;;;;;21.70;99.90;;;;;;5069057;28;19924;-72
2021/10/21 11:57:12;;;;;;;;;;;21.50;99.90;;;;;;5064960;28;19925;-73
2021/10/21 11:59:41;;;;;;;;;;;21.50;99.90;;;;;;5066413;28;19957;-70
2021/10/21 12:02:07;;;;;;;;;;;21.50;99.90;;;;;;5064526;28;19922;-71
2021/10/21 12:04:32;;;;;;;;;;;21.50;99.90;;;;;;5066116;28;19958;-73
2021/10/21 12:06:58;;;;;;;;;;;21.50;99.80;;;;;;5066588;28;20037;-73
2021/10/21 12:09:24;;;;;;;;;;;21.70;99.50;;;;;;5065737;28;19974;-72
2021/10/21 12:11:59;;;;;;;;;;;21.90;99.50;;;;;;5064511;28;20012;-73
2021/10/21 12:14:26;;;;;;;;;;;21.90;98.50;;;;;;5065155;28;19923;-72
2021/10/21 12:16:52;;;;;;;;;;;21.80;98.20;;;;;;5061659;28;19928;-73
2021/10/21 12:19:29;;;;;;;;;;;21.60;96.80;;;;;;5061112;28;20083;-73
2021/10/21 12:22:05;;;;;;;;;;;21.40;96.20;;;;;;5063758;28;19920;-73
2021/10/21 12:24:31;;;;;;;;;;;21.30;95.50;;;;;;5064976;28;19928;-73
2021/10/21 12:26:58;;;;;;;;;;;21.30;95.30;;;;;;5063288;28;20321;-72
2021/10/21 12:29:29;;;;;;;;;;;21.30;94.60;;;;;;5062679;28;19971;-73
2021/10/21 12:31:54;;;;;;;;;;;21.20;94.60;;;;;;5063953;28;19916;-72
2021/10/21 12:34:27;;;;;;;;;;;21.10;94.40;;;;;;5066181;28;19926;-72
2021/10/21 12:36:54;;;;;;;;;;;21.00;93.70;;;;;;5062139;28;20018;-73
2021/10/21 12:39:27;;;;;;;;;;;20.60;92.80;;;;;;5045890;28;20008;-72
2021/10/21 12:41:55;;;;;;;;;;;20.20;92.80;;;;;;5063251;28;19916;-72
2021/10/21 12:44:22;;;;;;;;;;;19.90;91.10;;;;;;5067195;28;20408;-73
2021/10/21 12:46:47;;;;;;;;;;;19.80;90.90;;;;;;5064257;28;20262;-73
2021/10/21 12:49:14;;;;;;;;;;;19.70;90.40;;;;;;5065751;28;20003;-72
2021/10/21 12:51:41;;;;;;;;;;;19.60;89.60;;;;;;5067196;28;19912;-73
2021/10/21 12:54:22;;;;;;;;;;;19.50;88.60;;;;;;5067165;28;20556;-73
2021/10/21 12:56:54;;;;;;;;;;;19.30;88.40;;;;;;5066196;28;20273;-72
2021/10/21 12:59:20;;;;;;;;;;;19.10;87.40;;;;;;5059350;28;19917;-73
2021/10/21 13:02:09;;;;;;;;;;;18.90;88.50;;;;;;5064840;28;20630;-72
2021/10/21 13:04:42;;;;;;;;;;;18.80;87.30;;;;;;5066432;28;20337;-73
2021/10/21 13:07:08;;;;;;;;;;;18.70;88.50;;;;;;5067683;28;19920;-72
2021/10/21 13:09:34;;;;;;;;;;;18.70;90.00;;;;;;5069508;28;20332;-72
2021/10/21 13:12:00;;;;;;;;;;;18.80;90.10;;;;;;5052625;28;19927;-73
2021/10/21 13:14:36;;;;;;;;;;;18.60;89.80;;;;;;5070541;28;19919;-72
2021/10/21 13:17:03;;;;;;;;;;;18.50;98.30;;;;;;5065919;28;19920;-73
2021/10/21 13:19:29;;;;;;;;;;;18.30;89.60;;;;;;5067513;28;20038;-72
2021/10/21 13:21:54;;;;;;;;;;;18.20;89.90;;;;;;5068286;28;19920;-73
2021/10/21 13:24:20;;;;;;;;;;;18.20;90.70;;;;;;5068166;28;19932;-72
2021/10/21 13:26:46;;;;;;;;;;;18.00;90.70;;;;;;5068519;28;20269;-72
2021/10/21 13:29:11;;;;;;;;;;;18.00;90.90;;;;;;5067624;28;19917;-73
2021/10/21 13:31:37;;;;;;;;;;;18.00;91.30;;;;;;5068159;28;19924;-72
2021/10/21 13:34:03;;;;;;;;;;;18.00;91.50;;;;;;5068257;28;19913;-73
2021/10/21 13:36:29;;;;;;;;;;;18.10;92.20;;;;;;5069533;28;19923;-73
2021/10/21 13:38:55;;;;;;;;;;;18.30;92.50;;;;;;5067305;28;19913;-72
2021/10/21 13:41:22;;;;;;;;;;;18.40;92.30;;;;;;5066515;28;20686;-73
2021/10/21 13:43:47;;;;;;;;;;;18.40;91.80;;;;;;5065122;28;20019;-72
2021/10/21 13:46:13;;;;;;;;;;;18.30;91.00;;;;;;5067488;28;19960;-73
2021/10/21 13:48:38;;;;;;;;;;;18.10;89.90;;;;;;5069061;28;20280;-72
2021/10/21 13:51:04;;;;;;;;;;;17.90;86.10;;;;;;5053588;28;19913;-72
2021/10/21 13:53:29;;;;;;;;;;;17.90;86.20;;;;;;5064629;28;19943;-73
2021/10/21 13:55:55;;;;;;;;;;;17.90;84.70;;;;;;5070896;28;19908;-73
2021/10/21 13:58:20;;;;;;;;;;;17.80;84.90;;;;;;5065192;28;19912;-73
2021/10/21 14:00:46;;;;;;;;;;;17.80;85.60;;;;;;5069773;28;20419;-73
2021/10/21 14:03:11;;;;;;;;;;;17.70;83.80;;;;;;5050723;28;19912;-73
2021/10/21 14:05:38;;;;;;;;;;;17.60;83.20;;;;;;5052679;28;19947;-73
2021/10/21 14:08:06;;;;;;;;;;;17.40;77.20;;;;;;5050882;28;20208;-74
2021/10/21 14:10:32;;;;;;;;;;;17.10;74.00;;;;;;5052804;28;19924;-73
2021/10/21 14:12:58;;;;;;;;;;;16.90;73.20;;;;;;5067622;28;20327;-73
2021/10/21 14:15:24;;;;;;;;;;;16.70;74.20;;;;;;5053041;28;19913;-72
2021/10/21 14:17:49;;;;;;;;;;;16.70;73.30;;;;;;5058297;28;19920;-72
2021/10/21 14:20:15;;;;;;;;;;;16.60;74.40;;;;;;5051515;28;20295;-73
2021/10/21 14:22:40;;;;;;;;;;;16.50;73.80;;;;;;5064953;28;20430;-72